Etusivu
METAR-TAF:

METAR-TAF

Lentoasemat :

Mason Jewett Field

Mason, Michigan, Yhdysvallat

Leveyspiiri: 42-33-57N, Pituuspiiri: 084-25-24W, korkeus merenpinnasta: 280 m

Tämänhetkinen sää

Tämä raportti tehtiin 26 minuuttia sitten, kello 07.16 UTC
Tuuli 4 kn etelästä/kaakosta
Lämpötila -14°C
Kosteus 85%
Ilmanpaine 1027 hPa
Näkyvyys: 16.1 km
selkeää

METAR: KTEW 130716Z AUTO 16004KT 10SM CLR M14/M16 A3034 RMK AO2 T11421161

Aika: 02:42 (07:42 UTC)


TAF: puuttuu

Säähavainnot ja -ennusteet yli 4000 lentoasemalta (METAR- ja TAF-raportit).

Käytössä olevat sääasemat on merkitty karttaan keltaisilla ja punaisilla pisteillä.

Aseta hiiri pisteen päälle nähdäksesi sääaseman nimen.

Klikkaa sitten nähdäksesi säähavainnot ja -ennusteet.

Kartan vaihtaminen: klikkaa mustalla rastilla varustettuja vihreitä pisteitä, niin voit zoomata sisään; viivalla varustettua vihreää pistettä, niin voit zoomata ulos tai vihreitä nuolia, niin pääset viereisille kartoille.


METAR-TAF: